Time;durP1;ratioP1;P1;durP2;ratioP2;P2;SDS_P1;SDS_P2;PMS_P1;PMS_P2;Temp;Humidity;BMP_temperature;BMP_pressure;BME280_temperature;BME280_humidity;BME280_pressure;Samples;Min_cycle;Max_cycle;Signal;HPM_P1;HPM_P2
2022/09/10 00:01:58;;;;;;;5.80;2.63;;;;;;;15.37;85.62;99041.06;5056759;28;20056;-71
2022/09/10 00:04:24;;;;;;;5.18;1.60;;;;;;;15.41;85.87;99042.50;5049556;28;20135;-69
2022/09/10 00:06:51;;;;;;;3.45;1.58;;;;;;;15.42;85.81;99037.03;5049477;28;20053;-68
2022/09/10 00:09:17;;;;;;;3.60;2.00;;;;;;;15.40;85.54;99036.31;5049556;28;20049;-70
2022/09/10 00:11:44;;;;;;;4.90;2.08;;;;;;;15.41;85.47;99045.16;5049820;28;20049;-70
2022/09/10 00:14:16;;;;;;;3.47;1.70;;;;;;;15.38;85.39;99030.31;5069100;28;20052;-68
2022/09/10 00:16:44;;;;;;;3.80;1.70;;;;;;;15.39;85.65;99041.78;5069342;28;20063;-68
2022/09/10 00:19:11;;;;;;;6.78;2.38;;;;;;;15.33;85.89;99034.28;5069371;28;20045;-69
2022/09/10 00:21:38;;;;;;;5.57;2.78;;;;;;;15.34;86.02;99036.84;5069232;28;20044;-69
2022/09/10 00:24:05;;;;;;;5.72;2.03;;;;;;;15.36;85.81;99032.25;5069421;28;20419;-70
2022/09/10 00:26:34;;;;;;;2.63;1.95;;;;;;;15.34;85.76;99036.84;5069106;28;20044;-68
2022/09/10 00:29:01;;;;;;;7.63;2.55;;;;;;;15.30;85.88;99038.03;5069062;28;20060;-70
2022/09/10 00:31:29;;;;;;;4.75;1.73;;;;;;;15.33;85.88;99037.78;5069376;28;20514;-67
2022/09/10 00:33:58;;;;;;;5.25;1.90;;;;;;;15.33;85.86;99035.13;5069201;28;20466;-69
2022/09/10 00:36:27;;;;;;;7.70;2.58;;;;;;;15.31;85.74;99045.06;5069024;28;20055;-68
2022/09/10 00:38:56;;;;;;;6.03;2.30;;;;;;;15.31;85.97;99039.75;5069341;28;20105;-70
2022/09/10 00:41:24;;;;;;;3.03;1.98;;;;;;;15.30;86.01;99045.16;5069077;28;20075;-69
2022/09/10 00:43:53;;;;;;;5.60;2.17;;;;;;;15.27;86.30;99040.94;5069136;28;20090;-69
2022/09/10 00:46:31;;;;;;;5.85;2.22;;;;;;;15.28;86.54;99041.78;5069101;28;20056;-68
2022/09/10 00:49:02;;;;;;;7.15;2.80;;;;;;;15.26;86.58;99047.25;5070330;28;20084;-68
2022/09/10 00:51:33;;;;;;;7.47;2.60;;;;;;;15.28;86.59;99052.41;5073123;28;20140;-68
2022/09/10 00:54:00;;;;;;;11.15;2.40;;;;;;;15.26;86.51;99044.59;5072721;28;20078;-69
2022/09/10 00:56:28;;;;;;;6.00;2.35;;;;;;;15.24;86.47;99035.91;5072892;28;20052;-70
2022/09/10 00:58:55;;;;;;;4.95;2.42;;;;;;;15.27;86.95;99040.13;5073388;28;20049;-69
2022/09/10 01:01:22;;;;;;;6.65;2.08;;;;;;;15.34;86.28;99043.97;5065393;28;20041;-69
2022/09/10 01:03:49;;;;;;;7.78;2.22;;;;;;;15.38;86.52;99040.06;5053560;28;20049;-68
2022/09/10 01:06:17;;;;;;;6.72;2.25;;;;;;;15.36;86.44;99042.03;5053035;28;20045;-68
2022/09/10 01:08:44;;;;;;;5.13;2.33;;;;;;;15.36;86.58;99047.34;5069504;28;20048;-69
2022/09/10 01:11:30;;;;;;;3.80;2.38;;;;;;;15.34;86.61;99038.66;5072712;28;20044;-69
2022/09/10 01:14:13;;;;;;;6.30;2.95;;;;;;;15.34;86.51;99049.28;5073039;28;20243;-69
2022/09/10 01:16:48;;;;;;;4.90;2.33;;;;;;;15.33;86.61;99040.44;5070388;28;20059;-69
2022/09/10 01:19:34;;;;;;;9.85;2.88;;;;;;;15.30;86.80;99040.69;5052849;28;20051;-69
2022/09/10 01:22:11;;;;;;;7.53;3.05;;;;;;;15.24;87.30;99042.03;5053525;28;20037;-69
2022/09/10 01:24:55;;;;;;;6.53;2.45;;;;;;;15.23;87.29;99040.38;5067774;28;20048;-70
2022/09/10 01:27:42;;;;;;;7.55;2.80;;;;;;;15.22;87.41;99045.78;5072608;28;20055;-70
2022/09/10 01:30:13;;;;;;;3.72;2.17;;;;;;;15.21;87.57;99039.66;5072550;28;20498;-69
2022/09/10 01:32:50;;;;;;;7.72;2.55;;;;;;;15.22;87.97;99036.00;5072381;28;20048;-69
2022/09/10 01:35:19;;;;;;;8.80;2.97;;;;;;;15.20;87.59;99032.63;5072168;28;20052;-69
2022/09/10 01:37:50;;;;;;;4.75;2.13;;;;;;;15.19;87.64;99044.22;5071849;28;20131;-71
2022/09/10 01:40:18;;;;;;;7.15;3.05;;;;;;;15.21;87.39;99038.78;5072254;28;20495;-71
2022/09/10 01:42:46;;;;;;;11.27;2.78;;;;;;;15.23;87.55;99040.38;5072265;28;20059;-70
2022/09/10 01:45:14;;;;;;;7.35;2.80;;;;;;;15.19;87.50;99041.56;5072004;28;20048;-71
2022/09/10 01:48:22;;;;;;;10.98;3.25;;;;;;;15.22;87.70;99046.63;5071705;28;20165;-70
2022/09/10 01:50:58;;;;;;;11.90;3.88;;;;;;;15.22;87.68;99043.13;5051643;28;20061;-69
2022/09/10 01:53:39;;;;;;;6.38;2.80;;;;;;;15.25;87.45;99045.53;5071551;28;20048;-69
2022/09/10 01:56:17;;;;;;;5.50;2.47;;;;;;;15.31;87.37;99045.06;5071860;28;20075;-68
2022/09/10 01:58:46;;;;;;;6.15;2.60;;;;;;;15.32;87.14;99041.41;5072263;28;20526;-68
2022/09/10 02:01:20;;;;;;;6.57;2.42;;;;;;;15.37;87.08;99043.72;5071147;28;20044;-68
2022/09/10 02:03:50;;;;;;;5.55;2.38;;;;;;;15.41;86.58;99038.03;5071946;28;20052;-68
2022/09/10 02:06:25;;;;;;;7.03;2.33;;;;;;;15.41;86.51;99035.38;5071166;28;20045;-68
2022/09/10 02:08:55;;;;;;;4.85;2.60;;;;;;;15.37;86.86;99033.09;5071586;28;20053;-70
2022/09/10 02:11:22;;;;;;;5.93;3.15;;;;;;;15.35;86.75;99029.72;5071300;28;20124;-68
2022/09/10 02:13:50;;;;;;;9.20;3.05;;;;;;;15.37;86.99;99039.25;5071657;28;20049;-68
2022/09/10 02:16:23;;;;;;;5.47;2.45;;;;;;;15.36;87.22;99037.56;5071295;28;20051;-68
2022/09/10 02:18:50;;;;;;;7.45;2.80;;;;;;;15.32;87.19;99035.28;5071649;28;20679;-68
2022/09/10 02:21:17;;;;;;;4.45;2.78;;;;;;;15.33;87.10;99029.81;5071185;28;20044;-68
2022/09/10 02:23:48;;;;;;;4.22;2.13;;;;;;;15.32;87.14;99029.97;5071583;28;20135;-69
2022/09/10 02:26:15;;;;;;;4.78;2.60;;;;;;;15.31;87.64;99028.25;5071248;28;20052;-69
2022/09/10 02:28:43;;;;;;;6.55;2.60;;;;;;;15.31;87.28;99023.81;5071285;28;20058;-69
2022/09/10 02:31:11;;;;;;;6.28;2.80;;;;;;;15.32;87.43;99030.78;5071420;28;20462;-70
2022/09/10 02:33:38;;;;;;;8.75;2.92;;;;;;;15.31;87.23;99025.59;5071081;28;20525;-71
2022/09/10 02:36:05;;;;;;;6.07;2.33;;;;;;;15.32;87.23;99022.84;5070783;28;20137;-69
2022/09/10 02:38:31;;;;;;;3.05;2.20;;;;;;;15.31;87.03;99012.31;5071266;28;20443;-70
2022/09/10 02:40:58;;;;;;;7.93;2.90;;;;;;;15.32;87.20;99019.34;5071208;28;20041;-69
2022/09/10 02:43:25;;;;;;;6.78;2.50;;;;;;;15.32;87.47;99022.00;5070961;28;20049;-70
2022/09/10 02:45:55;;;;;;;4.53;2.20;;;;;;;15.37;87.36;99017.16;5070953;28;20044;-70
2022/09/10 02:48:24;;;;;;;6.15;2.28;;;;;;;15.32;87.25;99022.00;5071023;28;20056;-70
2022/09/10 02:50:51;;;;;;;10.27;3.25;;;;;;;15.28;87.35;99024.03;5073752;28;20072;-71
2022/09/10 02:53:17;;;;;;;3.55;2.47;;;;;;;15.30;87.70;99021.28;5074793;28;20049;-71
2022/09/10 02:55:45;;;;;;;5.53;2.55;;;;;;;15.33;87.50;99019.19;5074438;28;20078;-71
2022/09/10 02:58:12;;;;;;;4.78;2.13;;;;;;;15.37;87.50;99022.47;5074606;28;20053;-69
2022/09/10 03:00:39;;;;;;;6.38;3.15;;;;;;;15.33;87.48;99021.00;5074192;28;20496;-70
2022/09/10 03:03:05;;;;;;;4.32;2.92;;;;;;;15.31;87.60;99018.50;5074452;28;20052;-69
2022/09/10 03:05:34;;;;;;;7.55;2.53;;;;;;;15.34;87.68;99025.38;5075743;28;20056;-69
2022/09/10 03:08:00;;;;;;;8.02;2.70;;;;;;;15.37;87.45;99030.44;5074189;28;20056;-69
2022/09/10 03:10:27;;;;;;;9.98;2.55;;;;;;;15.40;87.22;99028.34;5070549;28;20506;-69
2022/09/10 03:12:54;;;;;;;12.05;3.17;;;;;;;15.38;87.61;99030.31;5061245;28;20053;-67
2022/09/10 03:15:21;;;;;;;6.90;2.97;;;;;;;15.37;87.87;99025.13;5050349;28;20434;-69
2022/09/10 03:17:48;;;;;;;5.35;2.78;;;;;;;15.40;87.65;99024.84;5069666;28;20143;-69
2022/09/10 03:20:15;;;;;;;6.72;2.78;;;;;;;15.40;87.38;99038.13;5070191;28;20055;-69
2022/09/10 03:22:43;;;;;;;5.00;2.47;;;;;;;15.36;87.72;99026.94;5070224;28;20514;-70
2022/09/10 03:25:09;;;;;;;4.85;2.25;;;;;;;15.34;88.00;99023.56;5070257;28;20053;-69
2022/09/10 03:27:36;;;;;;;4.55;2.05;;;;;;;15.36;87.95;99029.59;5058269;28;20053;-69
2022/09/10 03:30:03;;;;;;;8.20;2.90;;;;;;;15.32;88.06;99024.66;5050205;28;20049;-69
2022/09/10 03:32:31;;;;;;;7.15;2.78;;;;;;;15.32;87.86;99028.16;5049991;28;20059;-69
2022/09/10 03:34:58;;;;;;;5.57;2.67;;;;;;;15.32;88.14;99029.97;5050082;28;20558;-69
2022/09/10 03:37:24;;;;;;;7.55;2.67;;;;;;;15.31;88.26;99025.59;5049853;28;20060;-70
2022/09/10 03:39:52;;;;;;;10.88;3.38;;;;;;;15.30;88.11;99026.59;5050045;28;20512;-69
2022/09/10 03:42:19;;;;;;;11.75;2.85;;;;;;;15.29;87.98;99028.41;5049835;28;20045;-69
2022/09/10 03:44:45;;;;;;;5.25;2.25;;;;;;;15.31;88.05;99025.59;5049676;28;20507;-69
2022/09/10 03:47:12;;;;;;;8.13;2.65;;;;;;;15.32;87.92;99030.78;5049533;28;20041;-69
2022/09/10 03:49:38;;;;;;;4.38;2.05;;;;;;;15.36;87.65;99032.25;5049742;28;20508;-70
2022/09/10 03:52:05;;;;;;;5.78;2.50;;;;;;;15.39;87.63;99031.16;5049887;28;20045;-69
2022/09/10 03:54:32;;;;;;;6.75;2.60;;;;;;;15.32;88.10;99027.31;5049174;28;20143;-69
2022/09/10 03:57:02;;;;;;;5.50;2.50;;;;;;;15.31;88.39;99034.44;5051468;28;20052;-69
2022/09/10 03:59:29;;;;;;;6.88;3.55;;;;;;;15.31;88.38;99025.59;5069634;28;20048;-69
2022/09/10 04:01:56;;;;;;;6.35;2.83;;;;;;;15.32;88.17;99029.97;5069656;28;20044;-69
2022/09/10 04:04:22;;;;;;;4.97;2.20;;;;;;;15.33;88.31;99031.63;5069311;28;20076;-69
2022/09/10 04:06:49;;;;;;;5.70;3.05;;;;;;;15.33;88.42;99023.66;5069467;28;20059;-69
2022/09/10 04:09:16;;;;;;;6.05;3.25;;;;;;;15.37;88.26;99030.44;5069598;28;20044;-69
2022/09/10 04:11:42;;;;;;;15.50;2.78;;;;;;;15.41;88.21;99027.41;5069240;28;20067;-69
2022/09/10 04:14:10;;;;;;;8.95;3.22;;;;;;;15.44;88.28;99024.50;5069147;28;20056;-69
2022/09/10 04:16:37;;;;;;;7.20;3.25;;;;;;;15.44;88.06;99028.97;5069181;28;20059;-68
2022/09/10 04:19:03;;;;;;;8.15;3.53;;;;;;;15.39;88.44;99028.50;5069560;28;20064;-70
2022/09/10 04:21:30;;;;;;;6.18;2.90;;;;;;;15.35;88.78;99021.75;5069477;28;20048;-70
2022/09/10 04:23:58;;;;;;;7.38;2.92;;;;;;;15.35;88.40;99019.91;5069008;28;20500;-69
2022/09/10 04:26:24;;;;;;;7.78;3.15;;;;;;;15.36;88.78;99012.81;5068880;28;20102;-69
2022/09/10 04:28:51;;;;;;;7.97;2.38;;;;;;;15.35;89.08;99021.75;5069356;28;20407;-69
2022/09/10 04:31:19;;;;;;;5.32;2.70;;;;;;;15.37;88.70;99018.00;5069347;28;20048;-68
2022/09/10 04:33:46;;;;;;;11.77;3.85;;;;;;;15.39;88.80;99017.88;5069297;28;20048;-68
2022/09/10 04:36:13;;;;;;;3.63;2.33;;;;;;;15.40;88.63;99016.91;5069110;28;20055;-71
2022/09/10 04:38:40;;;;;;;6.03;2.50;;;;;;;15.41;88.27;99018.59;5069397;28;20059;-69
2022/09/10 04:41:08;;;;;;;7.47;2.08;;;;;;;15.38;88.37;99013.50;5068954;28;20044;-71
2022/09/10 04:43:35;;;;;;;7.88;3.05;;;;;;;15.39;88.41;99018.72;5069172;28;20675;-68
2022/09/10 04:46:01;;;;;;;3.78;2.20;;;;;;;15.39;88.72;99026.69;5068922;28;20060;-68
2022/09/10 04:48:29;;;;;;;12.23;3.15;;;;;;;15.40;88.40;99020.38;5069127;28;20049;-69
2022/09/10 04:50:56;;;;;;;5.68;2.58;;;;;;;15.42;88.44;99021.09;5069129;28;20055;-69
2022/09/10 04:53:23;;;;;;;5.18;2.42;;;;;;;15.46;88.62;99021.72;5065308;28;20393;-68
2022/09/10 04:55:51;;;;;;;5.85;2.75;;;;;;;15.45;88.08;99025.31;5065198;28;20052;-69
2022/09/10 04:58:18;;;;;;;5.60;2.33;;;;;;;15.49;88.16;99032.09;5048964;28;20500;-69
2022/09/10 05:00:44;;;;;;;9.32;2.35;;;;;;;15.54;87.68;99026.41;5051380;28;20053;-69
2022/09/10 05:03:12;;;;;;;6.53;2.25;;;;;;;15.55;87.97;99031.56;5069016;28;20049;-70
2022/09/10 05:05:41;;;;;;;9.10;3.38;;;;;;;15.58;88.00;99041.97;5068929;28;20048;-70
2022/09/10 05:08:08;;;;;;;4.00;2.05;;;;;;;15.59;87.87;99032.19;5068630;28;20057;-70
2022/09/10 05:10:37;;;;;;;7.20;2.85;;;;;;;15.58;87.39;99036.66;5068839;28;20049;-69
2022/09/10 05:13:03;;;;;;;9.43;3.35;;;;;;;15.56;87.72;99032.44;5069033;28;20044;-71
2022/09/10 05:15:30;;;;;;;6.57;2.78;;;;;;;15.57;87.82;99029.63;5061652;28;20049;-70
2022/09/10 05:17:57;;;;;;;5.68;2.80;;;;;;;15.55;87.81;99034.22;5048737;28;20083;-70
2022/09/10 05:20:23;;;;;;;7.28;3.60;;;;;;;15.57;87.76;99039.44;5049030;28;20053;-69
2022/09/10 05:22:51;;;;;;;4.63;3.30;;;;;;;15.59;87.72;99043.66;5048902;28;20048;-70
2022/09/10 05:25:17;;;;;;;6.50;2.83;;;;;;;15.61;87.34;99040.88;5051329;28;20060;-70
2022/09/10 05:27:44;;;;;;;5.53;2.75;;;;;;;15.60;87.66;99036.50;5048533;28;20052;-69
2022/09/10 05:30:11;;;;;;;6.40;3.33;;;;;;;15.58;87.81;99034.00;5051304;28;20056;-69
2022/09/10 05:32:38;;;;;;;8.00;2.75;;;;;;;15.56;87.96;99037.75;5052617;28;20044;-68
2022/09/10 05:35:07;;;;;;;9.02;2.83;;;;;;;15.58;87.92;99047.28;5057172;28;20057;-69
2022/09/10 05:37:34;;;;;;;8.55;3.10;;;;;;;15.62;87.76;99046.03;5062149;28;20049;-69
2022/09/10 05:40:03;;;;;;;6.75;2.75;;;;;;;15.62;87.72;99045.22;5060687;28;20049;-70
2022/09/10 05:42:29;;;;;;;6.28;2.90;;;;;;;15.61;87.64;99044.38;5053818;28;20094;-69
2022/09/10 05:44:56;;;;;;;12.43;4.18;;;;;;;15.63;86.98;99052.22;5054937;28;20117;-70
2022/09/10 05:47:23;;;;;;;5.13;2.97;;;;;;;15.64;86.78;99052.09;5054184;28;20053;-69
2022/09/10 05:49:50;;;;;;;10.93;2.70;;;;;;;15.66;86.70;99046.66;5058179;28;20052;-70
2022/09/10 05:52:17;;;;;;;6.18;3.25;;;;;;;15.70;86.66;99060.53;5065017;28;20648;-70
2022/09/10 05:54:44;;;;;;;7.30;3.85;;;;;;;15.69;86.63;99051.72;5072409;28;20044;-69
2022/09/10 05:57:11;;;;;;;6.28;2.83;;;;;;;15.68;86.82;99056.19;5072903;28;20561;-69
2022/09/10 05:59:38;;;;;;;6.45;3.00;;;;;;;15.69;86.40;99054.38;5073361;28;20531;-72
2022/09/10 06:02:05;;;;;;;5.60;3.05;;;;;;;15.65;86.42;99055.56;5058547;28;20073;-71
2022/09/10 06:04:31;;;;;;;7.78;3.30;;;;;;;15.70;86.07;99060.53;5054830;28;20387;-70
2022/09/10 06:07:00;;;;;;;7.43;3.20;;;;;;;15.74;86.29;99064.66;5072335;28;20055;-70
2022/09/10 06:09:27;;;;;;;6.93;2.60;;;;;;;15.79;85.96;99067.78;5071637;28;20045;-70
2022/09/10 06:11:53;;;;;;;5.80;3.55;;;;;;;15.81;85.51;99066.69;5071283;28;20045;-70
2022/09/10 06:14:23;;;;;;;7.85;3.30;;;;;;;15.84;85.19;99074.38;5071577;28;20055;-70
2022/09/10 06:16:53;;;;;;;7.00;3.35;;;;;;;15.89;84.94;99082.81;5071228;28;20052;-67
2022/09/10 06:19:20;;;;;;;6.68;3.70;;;;;;;15.88;84.94;99081.16;5071436;28;20139;-72
2022/09/10 06:21:46;;;;;;;5.05;3.53;;;;;;;15.88;84.83;99088.28;5071731;28;20048;-69
2022/09/10 06:24:13;;;;;;;7.97;3.45;;;;;;;15.88;84.89;99085.63;5071759;28;20052;-68
2022/09/10 06:26:40;;;;;;;4.22;2.42;;;;;;;15.95;84.65;99088.59;5071332;28;20055;-67
2022/09/10 06:29:07;;;;;;;8.98;2.75;;;;;;;15.99;84.43;99090.03;5071372;28;20102;-68
2022/09/10 06:31:35;;;;;;;6.80;3.22;;;;;;;16.04;84.30;99099.31;5071404;28;20044;-70
2022/09/10 06:34:02;;;;;;;7.00;2.65;;;;;;;16.06;84.29;99100.03;5071195;28;20048;-67
2022/09/10 06:36:29;;;;;;;6.07;3.00;;;;;;;16.06;84.35;99094.72;5071374;28;20048;-70
2022/09/10 06:38:56;;;;;;;6.95;3.17;;;;;;;16.06;84.46;99108.03;5072278;28;20052;-70
2022/09/10 06:41:23;;;;;;;6.28;2.53;;;;;;;16.06;84.70;99105.34;5072015;28;20079;-69
2022/09/10 06:43:50;;;;;;;8.30;2.88;;;;;;;16.09;84.53;99099.78;5072392;28;20215;-70
2022/09/10 06:46:18;;;;;;;8.45;5.38;;;;;;;16.10;84.06;99093.50;5072019;28;20052;-69
2022/09/10 06:48:46;;;;;;;5.15;3.10;;;;;;;16.19;84.55;99099.84;5073120;28;20502;-69
2022/09/10 06:51:14;;;;;;;9.32;3.22;;;;;;;16.27;83.66;99096.59;5072593;28;20143;-68
2022/09/10 06:53:42;;;;;;;8.75;3.85;;;;;;;16.35;82.93;99098.59;5070762;28;20496;-68
2022/09/10 06:56:12;;;;;;;5.43;3.08;;;;;;;16.37;82.85;99110.78;5071293;28;20056;-69
2022/09/10 06:58:39;;;;;;;9.55;2.80;;;;;;;16.38;82.82;99107.16;5071509;28;20449;-68
2022/09/10 07:01:07;;;;;;;6.63;3.47;;;;;;;16.39;83.29;99102.66;5071319;28;20048;-68
2022/09/10 07:03:34;;;;;;;6.35;3.15;;;;;;;16.41;82.84;99106.88;5070959;28;20044;-69
2022/09/10 07:06:05;;;;;;;5.90;3.60;;;;;;;16.40;82.88;99115.84;5070702;28;20062;-68
2022/09/10 07:08:31;;;;;;;12.27;4.65;;;;;;;16.36;83.78;99117.06;5070687;28;20055;-69
2022/09/10 07:11:00;;;;;;;8.07;4.10;;;;;;;16.36;83.92;99111.75;5070490;28;20080;-69
2022/09/10 07:13:26;;;;;;;10.05;3.80;;;;;;;16.36;83.88;99117.06;5070400;28;20049;-68
2022/09/10 07:15:53;;;;;;;8.15;4.22;;;;;;;16.36;84.14;99124.22;5066877;28;20052;-69
2022/09/10 07:18:20;;;;;;;8.13;4.30;;;;;;;16.30;84.63;99114.94;5070336;28;20057;-70
2022/09/10 07:20:46;;;;;;;7.85;3.80;;;;;;;16.27;84.74;99117.88;5067203;28;20478;-70
2022/09/10 07:23:17;;;;;;;7.95;3.45;;;;;;;16.26;85.02;99119.66;5070466;28;20050;-70
2022/09/10 07:25:43;;;;;;;5.63;4.15;;;;;;;16.25;85.39;99125.97;5070066;28;20056;-69
2022/09/10 07:28:13;;;;;;;9.25;3.92;;;;;;;16.26;85.63;99129.47;5069963;28;20049;-68
2022/09/10 07:30:40;;;;;;;8.38;4.57;;;;;;;16.24;85.79;99136.72;5070094;28;20052;-68
2022/09/10 07:33:08;;;;;;;9.95;4.70;;;;;;;16.20;86.55;99129.97;5069862;28;20513;-68
2022/09/10 07:35:35;;;;;;;11.15;4.63;;;;;;;16.20;87.02;99137.97;5069987;28;20503;-69
2022/09/10 07:38:02;;;;;;;9.93;5.03;;;;;;;16.15;86.91;99143.66;5069528;28;20049;-68
2022/09/10 07:40:30;;;;;;;13.43;5.97;;;;;;;16.06;87.01;99145.25;5070081;28;20083;-69
2022/09/10 07:42:57;;;;;;;6.43;4.18;;;;;;;16.08;87.92;99137.16;5069745;28;20040;-70
2022/09/10 07:45:25;;;;;;;8.75;4.45;;;;;;;16.10;88.05;99137.88;5069868;28;20596;-70
2022/09/10 07:47:52;;;;;;;13.95;5.75;;;;;;;16.09;88.64;99146.81;5069627;28;20087;-70
2022/09/10 07:50:19;;;;;;;7.85;4.15;;;;;;;16.06;88.73;99142.59;5069678;28;20048;-69
2022/09/10 07:52:45;;;;;;;11.68;4.93;;;;;;;16.10;89.01;99141.38;5069240;28;20527;-70
2022/09/10 07:55:12;;;;;;;7.57;4.40;;;;;;;16.15;88.93;99146.31;5069760;28;20060;-70
2022/09/10 07:57:40;;;;;;;11.20;4.60;;;;;;;16.10;89.01;99146.69;5069769;28;20060;-70
2022/09/10 08:00:13;;;;;;;10.73;4.63;;;;;;;16.18;88.69;99150.53;5069137;28;20449;-69
2022/09/10 08:02:40;;;;;;;9.98;5.20;;;;;;;16.21;88.37;99155.59;5069377;28;20071;-68
2022/09/10 08:05:09;;;;;;;7.47;4.75;;;;;;;16.25;88.39;99152.56;5069082;28;20515;-68
2022/09/10 08:07:35;;;;;;;7.72;5.00;;;;;;;16.26;88.14;99151.56;5069305;28;20045;-68
2022/09/10 08:10:04;;;;;;;8.20;4.95;;;;;;;16.36;87.50;99154.31;5068990;28;20049;-69
2022/09/10 08:12:31;;;;;;;6.88;4.82;;;;;;;16.46;87.35;99154.38;5058061;28;20041;-70
2022/09/10 08:14:59;;;;;;;10.40;5.72;;;;;;;16.66;85.95;99156.25;5060752;28;20492;-69
2022/09/10 08:17:28;;;;;;;10.48;5.78;;;;;;;16.84;85.31;99153.84;5068741;28;20053;-69
2022/09/10 08:19:55;;;;;;;11.13;6.22;;;;;;;16.96;84.49;99151.97;5049415;28;20092;-69
2022/09/10 08:22:21;;;;;;;9.93;5.40;;;;;;;17.10;84.47;99153.41;5049449;28;20048;-70
2022/09/10 08:24:48;;;;;;;10.23;5.68;;;;;;;17.11;83.41;99155.97;5049362;28;20053;-69
2022/09/10 08:27:15;;;;;;;6.75;4.20;;;;;;;17.12;83.47;99162.13;5068467;28;20048;-69
2022/09/10 08:29:42;;;;;;;11.55;6.15;;;;;;;17.14;82.50;99158.34;5069440;28;20048;-70
2022/09/10 08:32:11;;;;;;;7.60;6.00;;;;;;;17.10;83.39;99161.41;5069449;28;20083;-70
2022/09/10 08:34:38;;;;;;;10.35;6.65;;;;;;;17.11;83.42;99157.78;5069215;28;20048;-69
2022/09/10 08:37:04;;;;;;;9.95;5.57;;;;;;;17.09;83.24;99167.72;5069234;28;20519;-71
2022/09/10 08:39:31;;;;;;;9.50;6.88;;;;;;;17.48;83.68;99163.41;5062418;28;20492;-54
2022/09/10 08:42:02;;;;;;;10.18;5.88;;;;;;;17.79;80.81;99166.00;5061644;28;20497;-56
2022/09/10 08:44:35;;;;;;;8.82;6.15;;;;;;;17.86;80.49;99171.69;5057632;28;20049;-53
2022/09/10 08:47:14;;;;;;;10.27;6.65;;;;;;;17.84;79.82;99169.13;5057527;28;20048;-57
2022/09/10 08:49:46;;;;;;;16.10;7.13;;;;;;;17.86;79.95;99169.84;5057164;28;20049;-55
2022/09/10 08:52:19;;;;;;;13.82;6.65;;;;;;;17.85;80.50;99170.84;5049196;28;20075;-55
2022/09/10 08:54:56;;;;;;;16.58;6.43;;;;;;;17.87;80.86;99174.22;5048691;28;20048;-57
2022/09/10 08:57:26;;;;;;;10.30;6.10;;;;;;;17.88;80.84;99172.41;5048979;28;20037;-50
2022/09/10 08:59:56;;;;;;;12.07;6.18;;;;;;;17.88;81.27;99173.22;5049193;28;20056;-53
2022/09/10 09:02:30;;;;;;;10.70;5.95;;;;;;;17.84;81.08;99171.81;5064702;28;20053;-54
2022/09/10 09:05:03;;;;;;;13.48;7.40;;;;;;;17.82;81.90;99181.78;5069078;28;20518;-54
2022/09/10 09:07:38;;;;;;;11.10;6.10;;;;;;;17.81;82.05;99183.59;5068904;28;20048;-53
2022/09/10 09:10:16;;;;;;;13.27;6.72;;;;;;;17.83;82.16;99186.13;5069497;28;20422;-55
2022/09/10 09:12:52;;;;;;;9.13;5.97;;;;;;;17.84;81.97;99184.31;5073085;28;20075;-51
2022/09/10 09:15:24;;;;;;;9.45;6.82;;;;;;;17.91;81.92;99174.78;5072755;28;20496;-51
2022/09/10 09:18:05;;;;;;;8.93;5.97;;;;;;;17.93;80.88;99173.66;5072578;28;20506;-53
2022/09/10 09:20:43;;;;;;;9.65;6.57;;;;;;;18.02;81.12;99185.34;5068682;28;20061;-54
2022/09/10 09:23:20;;;;;;;12.57;6.38;;;;;;;17.98;81.19;99184.75;5052557;28;20102;-57
2022/09/10 09:25:48;;;;;;;11.10;6.82;;;;;;;18.05;80.66;99179.72;5053559;28;20047;-53
2022/09/10 09:28:22;;;;;;;13.98;6.90;;;;;;;18.07;80.33;99180.44;5052788;28;20512;-57
2022/09/10 09:30:50;;;;;;;11.15;7.03;;;;;;;18.08;80.36;99176.78;5052440;28;20118;-58
2022/09/10 09:33:19;;;;;;;11.45;5.72;;;;;;;18.06;79.84;99186.72;5052206;28;20496;-54
2022/09/10 09:35:51;;;;;;;8.68;5.95;;;;;;;18.04;79.52;99178.06;5064875;28;20052;-56
2022/09/10 09:38:23;;;;;;;9.38;5.97;;;;;;;18.02;80.23;99175.50;5064514;28;20045;-54
2022/09/10 09:40:53;;;;;;;9.43;6.03;;;;;;;17.97;80.71;99168.91;5071825;28;20060;-60
2022/09/10 09:43:30;;;;;;;8.68;6.32;;;;;;;17.97;80.49;99179.56;5071892;28;20135;-59
2022/09/10 09:45:58;;;;;;;12.13;6.25;;;;;;;17.89;81.11;99185.56;5072027;28;20067;-52
2022/09/10 09:48:25;;;;;;;7.88;5.13;;;;;;;17.85;80.68;99186.84;5072040;28;20144;-54
2022/09/10 09:50:57;;;;;;;12.32;6.00;;;;;;;17.92;79.83;99187.16;5072056;28;20044;-69
2022/09/10 09:53:26;;;;;;;13.77;6.93;;;;;;;17.71;81.17;99188.03;5071675;28;20055;-69
2022/09/10 09:55:55;;;;;;;16.02;7.00;;;;;;;17.48;82.18;99195.38;5071826;28;20052;-72
2022/09/10 09:58:36;;;;;;;9.25;7.00;;;;;;;17.30;83.10;99192.50;5071746;28;20131;-69
2022/09/10 10:01:15;;;;;;;11.15;7.13;;;;;;;17.15;84.35;99192.03;5072062;28;20090;-70
2022/09/10 10:03:51;;;;;;;14.25;7.43;;;;;;;17.06;84.79;99191.97;5071899;28;20048;-71
2022/09/10 10:06:21;;;;;;;11.98;8.02;;;;;;;16.98;85.72;99197.09;5071368;28;20048;-70
2022/09/10 10:08:56;;;;;;;11.82;6.75;;;;;;;16.99;86.20;99190.81;5071967;28;20052;-69
2022/09/10 10:11:37;;;;;;;17.48;8.15;;;;;;;16.95;86.41;99191.03;5071277;28;20044;-69
2022/09/10 10:14:13;;;;;;;9.98;6.22;;;;;;;16.91;87.01;99183.47;5071788;28;20059;-69
2022/09/10 10:16:40;;;;;;;9.57;7.20;;;;;;;16.94;87.48;99183.19;5071775;28;20053;-69
2022/09/10 10:19:27;;;;;;;11.23;7.78;;;;;;;16.97;87.15;99182.94;5071841;28;20140;-67
2022/09/10 10:21:58;;;;;;;15.32;8.23;;;;;;;16.99;87.47;99181.00;5072771;28;20052;-68
2022/09/10 10:24:31;;;;;;;8.75;7.60;;;;;;;16.99;86.74;99185.47;5073823;28;20048;-67
2022/09/10 10:26:58;;;;;;;12.20;8.23;;;;;;;16.98;87.22;99178.44;5073667;28;20052;-70
2022/09/10 10:29:26;;;;;;;12.60;7.70;;;;;;;17.04;87.48;99180.59;5074487;28;20057;-67
2022/09/10 10:31:54;;;;;;;33.50;9.35;;;;;;;17.07;86.59;99183.00;5075283;28;20055;-70
2022/09/10 10:34:46;;;;;;;10.13;6.97;;;;;;;17.07;87.32;99180.31;5074859;28;20126;-70
2022/09/10 10:37:19;;;;;;;11.48;6.90;;;;;;;17.09;87.35;99167.72;5078312;28;20107;-70
2022/09/10 10:40:02;;;;;;;12.88;9.00;;;;;;;17.14;86.64;99176.16;5078343;28;20157;-70
2022/09/10 10:42:34;;;;;;;9.23;6.90;;;;;;;17.16;86.53;99176.88;5074193;28;20059;-69
2022/09/10 10:45:35;;;;;;;13.05;8.75;;;;;;;17.26;85.44;99188.41;5072475;28;20674;-70
2022/09/10 10:48:08;;;;;;;14.10;7.47;;;;;;;17.33;85.32;99192.25;5040209;28;20060;-68
2022/09/10 10:50:49;;;;;;;10.40;6.85;;;;;;;17.46;85.15;99185.84;5052352;28;20080;-72
2022/09/10 10:53:34;;;;;;;8.95;6.05;;;;;;;17.60;84.06;99188.97;5053871;28;20055;-70
2022/09/10 10:56:08;;;;;;;18.15;7.78;;;;;;;17.77;83.10;99194.63;5050632;28;20156;-69
2022/09/10 10:59:08;;;;;;;9.25;6.93;;;;;;;17.92;83.60;99197.81;5051261;28;20048;-70
2022/09/10 11:01:40;;;;;;;11.57;6.90;;;;;;;17.92;81.75;99204.00;5060257;28;20416;-70
2022/09/10 11:04:22;;;;;;;20.73;7.40;;;;;;;17.94;82.26;99203.84;5070793;28;20041;-69
2022/09/10 11:06:54;;;;;;;12.27;6.50;;;;;;;17.93;82.26;99199.50;5070681;28;20052;-71
2022/09/10 11:09:27;;;;;;;9.07;6.45;;;;;;;17.94;81.93;99202.03;5070866;28;20052;-70
2022/09/10 11:11:58;;;;;;;9.95;6.97;;;;;;;18.00;81.28;99192.63;5070701;28;20059;-70
2022/09/10 11:14:31;;;;;;;14.30;7.18;;;;;;;17.98;80.76;99190.09;5070339;28;20099;-70
2022/09/10 11:17:04;;;;;;;12.50;6.70;;;;;;;18.01;79.58;99199.63;5070363;28;20059;-71
2022/09/10 11:19:37;;;;;;;11.55;7.90;;;;;;;18.08;80.43;99194.59;5067227;28;20040;-69
2022/09/10 11:22:10;;;;;;;9.60;6.95;;;;;;;18.14;79.93;99197.56;5068519;28;20059;-70
2022/09/10 11:24:44;;;;;;;11.50;7.53;;;;;;;18.21;79.11;99200.50;5069935;28;20041;-71
2022/09/10 11:27:14;;;;;;;15.85;8.43;;;;;;;18.30;78.55;99199.69;5070519;28;20059;-70
2022/09/10 11:29:44;;;;;;;12.10;7.80;;;;;;;18.50;78.64;99197.88;5070541;28;20044;-70
2022/09/10 11:32:25;;;;;;;12.10;6.40;;;;;;;18.62;76.80;99202.06;5070157;28;20056;-68
2022/09/10 11:34:57;;;;;;;10.05;7.20;;;;;;;18.66;76.97;99208.84;5069393;28;20523;-69
2022/09/10 11:37:32;;;;;;;9.38;6.63;;;;;;;18.68;76.92;99198.03;5069737;28;20082;-69
2022/09/10 11:40:11;;;;;;;10.23;7.50;;;;;;;18.66;75.64;99194.66;5070050;28;20403;-68
2022/09/10 11:42:41;;;;;;;11.85;7.85;;;;;;;18.70;75.83;99196.03;5069547;28;20511;-69
2022/09/10 11:45:22;;;;;;;11.68;8.50;;;;;;;18.84;75.51;99184.09;5049508;28;20493;-70